createdAt,value
2023-04-09T00:01:35.769Z,12.73
2023-04-09T00:04:03.511Z,12.88
2023-04-09T00:06:31.225Z,12.50
2023-04-09T00:08:58.903Z,11.77
2023-04-09T00:11:26.768Z,12.25
2023-04-09T00:13:54.456Z,12.77
2023-04-09T00:16:21.949Z,12.68
2023-04-09T00:18:49.852Z,11.90
2023-04-09T00:21:17.205Z,12.48
2023-04-09T00:23:44.775Z,11.98
2023-04-09T00:26:12.146Z,12.77
2023-04-09T00:28:39.791Z,11.20
2023-04-09T00:31:07.057Z,12.32
2023-04-09T00:33:34.781Z,11.82
2023-04-09T00:36:02.294Z,12.05
2023-04-09T00:38:29.888Z,11.85
2023-04-09T00:40:57.090Z,10.93
2023-04-09T00:43:24.721Z,12.25
2023-04-09T00:45:52.125Z,11.20
2023-04-09T00:48:20.784Z,11.25
2023-04-09T00:50:48.275Z,11.15
2023-04-09T00:53:16.183Z,11.88
2023-04-09T00:55:43.802Z,11.25
2023-04-09T00:58:11.564Z,11.35
2023-04-09T01:00:38.942Z,11.00
2023-04-09T01:03:07.686Z,11.68
2023-04-09T01:05:47.254Z,11.18
2023-04-09T01:08:33.364Z,11.23
2023-04-09T01:11:13.900Z,11.23
2023-04-09T01:13:57.299Z,10.75
2023-04-09T01:16:24.664Z,10.98
2023-04-09T01:19:02.762Z,10.65
2023-04-09T01:21:32.569Z,10.90
2023-04-09T01:24:19.300Z,10.77
2023-04-09T01:27:05.428Z,10.50
2023-04-09T01:29:41.820Z,10.25
2023-04-09T01:32:10.506Z,11.50
2023-04-09T01:34:38.966Z,11.05
2023-04-09T01:37:07.865Z,11.13
2023-04-09T01:39:37.702Z,11.13
2023-04-09T01:42:09.545Z,10.30
2023-04-09T01:44:40.342Z,11.35
2023-04-09T01:47:09.200Z,10.60
2023-04-09T01:49:38.356Z,10.48
2023-04-09T01:52:07.413Z,10.48
2023-04-09T01:54:35.230Z,10.57
2023-04-09T01:57:02.575Z,10.65
2023-04-09T01:59:30.285Z,10.73
2023-04-09T02:02:08.379Z,10.23
2023-04-09T02:04:40.930Z,10.13
2023-04-09T02:07:38.167Z,9.88
2023-04-09T02:10:08.621Z,10.02
2023-04-09T02:12:42.735Z,10.60
2023-04-09T02:15:11.472Z,10.32
2023-04-09T02:17:38.803Z,10.82
2023-04-09T02:20:07.423Z,9.75
2023-04-09T02:22:34.918Z,10.32
2023-04-09T02:25:02.451Z,9.95
2023-04-09T02:27:30.238Z,10.50
2023-04-09T02:29:57.745Z,10.18
2023-04-09T02:32:25.078Z,10.60
2023-04-09T02:34:52.692Z,10.20
2023-04-09T02:37:20.092Z,10.43
2023-04-09T02:39:47.972Z,10.18
2023-04-09T02:42:15.961Z,10.30
2023-04-09T02:44:44.307Z,10.15
2023-04-09T02:47:11.684Z,10.60
2023-04-09T02:49:39.180Z,9.75
2023-04-09T02:52:06.457Z,10.10
2023-04-09T02:54:33.999Z,9.95
2023-04-09T02:57:01.409Z,10.00
2023-04-09T02:59:29.122Z,9.57
2023-04-09T03:01:56.422Z,10.68
2023-04-09T03:04:24.003Z,9.75
2023-04-09T03:06:51.635Z,10.23
2023-04-09T03:09:19.154Z,9.48
2023-04-09T03:11:46.525Z,9.57
2023-04-09T03:14:14.076Z,9.75
2023-04-09T03:16:41.436Z,9.48
2023-04-09T03:19:08.994Z,9.25
2023-04-09T03:21:36.308Z,9.70
2023-04-09T03:24:05.442Z,9.93
2023-04-09T03:26:36.313Z,9.52
2023-04-09T03:29:04.943Z,9.75
2023-04-09T03:31:33.000Z,9.48
2023-04-09T03:34:00.620Z,9.70
2023-04-09T03:36:28.189Z,9.50
2023-04-09T03:38:55.811Z,9.48
2023-04-09T03:41:23.123Z,9.68
2023-04-09T03:43:50.720Z,9.07
2023-04-09T03:46:18.262Z,9.23
2023-04-09T03:48:46.123Z,9.52
2023-04-09T03:51:14.487Z,10.15
2023-04-09T03:53:42.431Z,9.43
2023-04-09T03:56:10.951Z,9.23
2023-04-09T03:58:38.486Z,9.85
2023-04-09T04:01:06.721Z,9.05
2023-04-09T04:03:34.451Z,9.55
2023-04-09T04:06:03.066Z,9.73
2023-04-09T04:08:30.708Z,9.38
2023-04-09T04:11:03.693Z,9.57
2023-04-09T04:13:32.283Z,9.07
2023-04-09T04:15:59.684Z,9.50
2023-04-09T04:18:27.234Z,9.57
2023-04-09T04:20:54.579Z,10.00
2023-04-09T04:23:22.565Z,9.75
2023-04-09T04:25:49.934Z,9.52
2023-04-09T04:28:17.428Z,9.38
2023-04-09T04:30:44.907Z,9.23
2023-04-09T04:33:12.582Z,9.57
2023-04-09T04:35:40.020Z,9.13
2023-04-09T04:38:07.638Z,10.60
2023-04-09T04:40:35.212Z,9.27
2023-04-09T04:43:02.771Z,9.30
2023-04-09T04:45:30.085Z,9.45
2023-04-09T04:47:57.659Z,10.25
2023-04-09T04:50:25.304Z,9.00
2023-04-09T04:52:52.886Z,9.57
2023-04-09T04:55:20.603Z,10.07
2023-04-09T04:57:50.772Z,9.73
2023-04-09T05:00:18.858Z,8.93
2023-04-09T05:02:46.729Z,8.88
2023-04-09T05:05:14.161Z,9.38
2023-04-09T05:07:41.712Z,9.60
2023-04-09T05:10:09.926Z,9.48
2023-04-09T05:12:38.031Z,8.93
2023-04-09T05:15:06.002Z,9.25
2023-04-09T05:17:33.711Z,8.77
2023-04-09T05:20:02.013Z,10.00
2023-04-09T05:22:29.644Z,9.52
2023-04-09T05:24:56.955Z,9.95
2023-04-09T05:27:26.003Z,9.02
2023-04-09T05:29:53.353Z,9.18
2023-04-09T05:32:21.340Z,9.27
2023-04-09T05:34:48.708Z,9.52
2023-04-09T05:37:16.441Z,9.43
2023-04-09T05:39:43.838Z,9.32
2023-04-09T05:42:11.318Z,9.27
2023-04-09T05:44:38.691Z,9.55
2023-04-09T05:47:07.192Z,9.95
2023-04-09T05:49:34.598Z,10.48
2023-04-09T05:52:02.219Z,9.73
2023-04-09T05:54:29.568Z,10.00
2023-04-09T05:56:57.229Z,9.75
2023-04-09T05:59:24.588Z,10.70
2023-04-09T06:01:52.143Z,10.73
2023-04-09T06:04:19.664Z,10.43
2023-04-09T06:06:47.302Z,10.38
2023-04-09T06:09:14.639Z,9.68
2023-04-09T06:11:43.007Z,9.80
2023-04-09T06:14:12.231Z,9.52
2023-04-09T06:16:40.028Z,9.38
2023-04-09T06:19:07.353Z,9.88
2023-04-09T06:21:34.897Z,10.23
2023-04-09T06:24:02.280Z,9.95
2023-04-09T06:26:29.827Z,9.73
2023-04-09T06:28:58.198Z,9.48
2023-04-09T06:31:25.883Z,9.00
2023-04-09T06:33:53.370Z,9.15
2023-04-09T06:36:21.443Z,9.60
2023-04-09T06:38:49.327Z,9.77
2023-04-09T06:41:17.054Z,9.65
2023-04-09T06:43:44.387Z,9.30
2023-04-09T06:46:11.996Z,10.15
2023-04-09T06:48:39.943Z,9.25
2023-04-09T06:51:07.704Z,9.85
2023-04-09T06:53:34.968Z,9.40
2023-04-09T06:56:02.718Z,9.93
2023-04-09T06:58:30.265Z,9.45
2023-04-09T07:00:58.003Z,9.93
2023-04-09T07:03:27.804Z,9.55
2023-04-09T07:05:56.569Z,9.75
2023-04-09T07:08:24.003Z,8.93
2023-04-09T07:10:51.798Z,9.50
2023-04-09T07:13:19.132Z,10.00
2023-04-09T07:15:47.521Z,10.20
2023-04-09T07:18:14.971Z,9.82
2023-04-09T07:20:42.705Z,10.25
2023-04-09T07:23:10.407Z,9.95
2023-04-09T07:25:38.044Z,10.50
2023-04-09T07:28:05.433Z,10.10
2023-04-09T07:30:32.973Z,10.15
2023-04-09T07:33:00.482Z,10.88
2023-04-09T07:35:28.276Z,11.43
2023-04-09T07:37:55.790Z,10.55
2023-04-09T07:40:23.300Z,10.57
2023-04-09T07:42:50.894Z,10.52
2023-04-09T07:45:18.760Z,10.32
2023-04-09T07:47:46.203Z,11.32
2023-04-09T07:50:13.775Z,11.50
2023-04-09T07:52:41.920Z,11.63
2023-04-09T07:55:10.036Z,11.45
2023-04-09T07:57:38.716Z,10.80
2023-04-09T08:00:06.872Z,11.13
2023-04-09T08:02:34.343Z,11.02
2023-04-09T08:05:02.811Z,11.63
2023-04-09T08:07:30.311Z,11.23
2023-04-09T08:09:57.921Z,11.57
2023-04-09T08:12:25.326Z,11.07
2023-04-09T08:14:52.997Z,10.75
2023-04-09T08:17:20.336Z,11.50
2023-04-09T08:19:49.493Z,11.25
2023-04-09T08:22:16.814Z,12.02
2023-04-09T08:24:44.574Z,11.05
2023-04-09T08:27:12.102Z,10.93
2023-04-09T08:29:40.482Z,11.57
2023-04-09T08:32:08.136Z,11.85
2023-04-09T08:34:35.963Z,11.95
2023-04-09T08:37:03.459Z,11.05
2023-04-09T08:39:31.258Z,11.57
2023-04-09T08:42:02.452Z,11.70
2023-04-09T08:44:30.656Z,11.25
2023-04-09T08:47:00.037Z,11.75
2023-04-09T08:49:27.610Z,11.18
2023-04-09T08:51:54.836Z,11.63
2023-04-09T08:54:23.446Z,11.95
2023-04-09T08:56:50.691Z,11.00
2023-04-09T08:59:18.624Z,10.77
2023-04-09T09:01:47.974Z,11.52
2023-04-09T09:04:15.739Z,10.73
2023-04-09T09:06:43.186Z,11.02
2023-04-09T09:09:13.132Z,11.13
2023-04-09T09:11:45.803Z,12.05
2023-04-09T09:14:16.104Z,11.73
2023-04-09T09:17:03.725Z,11.20
2023-04-09T09:19:36.483Z,11.50
2023-04-09T09:22:06.634Z,11.35
2023-04-09T09:24:34.907Z,10.82
2023-04-09T09:27:03.020Z,11.93
2023-04-09T09:29:30.573Z,12.02
2023-04-09T09:31:57.907Z,11.82
2023-04-09T09:34:25.957Z,11.80
2023-04-09T09:36:53.398Z,11.82
2023-04-09T09:39:22.135Z,11.13
2023-04-09T09:42:07.446Z,12.05
2023-04-09T09:44:35.044Z,12.23
2023-04-09T09:47:04.742Z,12.02
2023-04-09T09:49:32.300Z,11.73
2023-04-09T09:52:02.948Z,12.23
2023-04-09T09:54:43.205Z,11.70
2023-04-09T09:57:13.606Z,12.50
2023-04-09T09:59:47.566Z,12.15
2023-04-09T10:02:24.604Z,12.30
2023-04-09T10:04:53.117Z,12.00
2023-04-09T10:07:22.333Z,10.85
2023-04-09T10:09:51.872Z,11.52
2023-04-09T10:12:25.417Z,11.52
2023-04-09T10:14:55.238Z,11.98
2023-04-09T10:17:22.741Z,11.90
2023-04-09T10:20:22.864Z,12.27
2023-04-09T10:22:52.594Z,12.23
2023-04-09T10:25:20.998Z,12.32
2023-04-09T10:28:16.435Z,12.43
2023-04-09T10:30:44.740Z,12.43
2023-04-09T10:33:17.121Z,12.75
2023-04-09T10:35:47.786Z,11.80
2023-04-09T10:38:15.509Z,12.10
2023-04-09T10:40:49.617Z,12.30
2023-04-09T10:43:23.499Z,13.00
2023-04-09T10:45:53.502Z,12.27
2023-04-09T10:48:21.987Z,12.07
2023-04-09T10:50:54.528Z,12.20
2023-04-09T10:53:24.077Z,12.27
2023-04-09T10:55:53.645Z,12.50
2023-04-09T10:58:21.447Z,12.80
2023-04-09T11:00:50.590Z,12.13
2023-04-09T11:03:27.470Z,12.45
2023-04-09T11:06:09.172Z,12.40
2023-04-09T11:08:38.632Z,12.13
2023-04-09T11:11:06.418Z,12.68
2023-04-09T11:13:34.381Z,11.60
2023-04-09T11:16:06.610Z,11.23
2023-04-09T11:18:35.543Z,12.18
2023-04-09T11:21:04.474Z,12.00
2023-04-09T11:23:32.936Z,12.48
2023-04-09T11:26:01.766Z,12.35
2023-04-09T11:28:29.057Z,12.40
2023-04-09T11:30:56.575Z,11.93
2023-04-09T11:33:32.139Z,11.57
2023-04-09T11:35:59.724Z,12.15
2023-04-09T11:38:27.028Z,11.65
2023-04-09T11:40:57.565Z,11.93
2023-04-09T11:43:25.218Z,11.38
2023-04-09T11:45:53.169Z,10.98
2023-04-09T11:48:23.288Z,11.95
2023-04-09T11:50:50.967Z,12.45
2023-04-09T11:53:19.253Z,11.60
2023-04-09T11:55:51.873Z,11.98
2023-04-09T11:58:22.724Z,11.88
2023-04-09T12:00:54.015Z,11.48
2023-04-09T12:03:29.385Z,12.10
2023-04-09T12:06:01.545Z,11.45
2023-04-09T12:08:29.201Z,11.90
2023-04-09T12:10:56.633Z,11.35
2023-04-09T12:13:33.438Z,12.13
2023-04-09T12:16:01.255Z,11.70
2023-04-09T12:18:29.226Z,11.45
2023-04-09T12:20:56.649Z,11.95
2023-04-09T12:23:24.143Z,11.20
2023-04-09T12:25:51.487Z,11.43
2023-04-09T12:28:19.135Z,11.10
2023-04-09T12:30:48.178Z,11.77
2023-04-09T12:33:15.767Z,11.32
2023-04-09T12:35:43.246Z,10.98
2023-04-09T12:38:11.195Z,10.93
2023-04-09T12:40:39.122Z,10.57
2023-04-09T12:43:06.729Z,10.98
2023-04-09T12:45:34.083Z,11.45
2023-04-09T12:48:02.104Z,11.95
2023-04-09T12:50:29.481Z,10.88
2023-04-09T12:52:57.001Z,10.82
2023-04-09T12:55:24.348Z,11.18
2023-04-09T12:57:52.075Z,10.88
2023-04-09T13:00:19.378Z,10.63
2023-04-09T13:02:47.189Z,10.90
2023-04-09T13:05:14.697Z,10.77
2023-04-09T13:07:43.535Z,11.02
2023-04-09T13:10:11.193Z,10.73
2023-04-09T13:12:38.774Z,11.38
2023-04-09T13:15:06.754Z,10.95
2023-04-09T13:17:34.327Z,10.73
2023-04-09T13:20:01.833Z,10.55
2023-04-09T13:22:29.582Z,10.80
2023-04-09T13:24:57.341Z,10.38
2023-04-09T13:27:24.972Z,10.57
2023-04-09T13:29:52.368Z,10.77
2023-04-09T13:32:23.214Z,10.93
2023-04-09T13:34:51.148Z,10.68
2023-04-09T13:37:19.833Z,9.98
2023-04-09T13:39:47.042Z,10.52
2023-04-09T13:42:16.057Z,10.48
2023-04-09T13:44:45.409Z,9.90
2023-04-09T13:47:13.941Z,9.85
2023-04-09T13:49:42.510Z,10.43
2023-04-09T13:52:11.013Z,10.27
2023-04-09T13:54:38.322Z,10.45
2023-04-09T13:57:06.010Z,10.55
2023-04-09T13:59:33.290Z,10.25
2023-04-09T14:02:01.117Z,10.05
2023-04-09T14:04:28.505Z,10.18
2023-04-09T14:06:57.352Z,9.98
2023-04-09T14:09:24.743Z,10.13
2023-04-09T14:11:54.225Z,10.18
2023-04-09T14:14:21.491Z,10.23
2023-04-09T14:16:50.313Z,10.02
2023-04-09T14:19:17.973Z,10.00
2023-04-09T14:21:45.523Z,10.05
2023-04-09T14:24:12.823Z,10.30
2023-04-09T14:26:40.783Z,10.30
2023-04-09T14:29:08.051Z,9.80
2023-04-09T14:31:35.778Z,9.68
2023-04-09T14:34:03.842Z,9.48
2023-04-09T14:36:32.196Z,9.82
2023-04-09T14:39:00.184Z,9.90
2023-04-09T14:41:28.006Z,9.23
2023-04-09T14:43:55.293Z,9.75
2023-04-09T14:46:22.875Z,9.88
2023-04-09T14:48:50.367Z,9.57
2023-04-09T14:51:18.342Z,9.75
2023-04-09T14:53:45.655Z,9.63
2023-04-09T14:56:13.190Z,9.32
2023-04-09T14:58:40.662Z,9.80
2023-04-09T15:01:08.309Z,10.13
2023-04-09T15:03:35.752Z,9.63
2023-04-09T15:06:03.696Z,9.10
2023-04-09T15:08:30.967Z,9.80
2023-04-09T15:10:58.517Z,9.10
2023-04-09T15:13:25.887Z,9.40
2023-04-09T15:15:53.555Z,9.45
2023-04-09T15:18:21.878Z,9.27
2023-04-09T15:20:50.440Z,8.95
2023-04-09T15:23:17.713Z,8.75
2023-04-09T15:25:45.339Z,9.13
2023-04-09T15:28:14.381Z,9.10
2023-04-09T15:30:42.017Z,9.20
2023-04-09T15:33:09.352Z,9.07
2023-04-09T15:35:37.738Z,8.70
2023-04-09T15:38:05.432Z,9.70
2023-04-09T15:40:33.090Z,9.15
2023-04-09T15:43:00.334Z,8.68
2023-04-09T15:45:27.931Z,9.32
2023-04-09T15:47:55.333Z,8.63
2023-04-09T15:50:23.012Z,8.43
2023-04-09T15:52:50.443Z,8.98
2023-04-09T15:55:18.426Z,8.18
2023-04-09T15:57:46.828Z,8.93
2023-04-09T16:00:15.426Z,9.30
2023-04-09T16:02:42.990Z,8.85
2023-04-09T16:05:10.528Z,8.50
2023-04-09T16:07:39.392Z,8.13
2023-04-09T16:10:07.476Z,8.43
2023-04-09T16:12:35.234Z,8.30
2023-04-09T16:15:03.271Z,8.80
2023-04-09T16:17:30.937Z,9.00
2023-04-09T16:19:58.673Z,8.45
2023-04-09T16:22:26.053Z,8.07
2023-04-09T16:24:53.523Z,8.85
2023-04-09T16:27:21.109Z,8.68
2023-04-09T16:29:48.638Z,8.18
2023-04-09T16:32:15.986Z,7.95
2023-04-09T16:34:43.548Z,8.43
2023-04-09T16:37:10.955Z,8.68
2023-04-09T16:39:38.653Z,8.20
2023-04-09T16:42:06.073Z,8.10
2023-04-09T16:44:33.724Z,8.10
2023-04-09T16:47:02.629Z,8.35
2023-04-09T16:49:31.329Z,7.97
2023-04-09T16:51:58.785Z,8.02
2023-04-09T16:54:26.371Z,8.48
2023-04-09T16:56:53.792Z,8.85
2023-04-09T16:59:21.368Z,8.00
2023-04-09T17:01:49.097Z,7.88
2023-04-09T17:04:17.121Z,7.68
2023-04-09T17:06:44.750Z,7.93
2023-04-09T17:09:12.282Z,8.32
2023-04-09T17:11:39.634Z,7.93
2023-04-09T17:14:07.519Z,8.00
2023-04-09T17:16:34.916Z,7.85
2023-04-09T17:19:02.527Z,8.13
2023-04-09T17:21:29.781Z,8.07
2023-04-09T17:23:57.260Z,7.32
2023-04-09T17:26:25.400Z,7.40
2023-04-09T17:28:53.132Z,7.72
2023-04-09T17:31:24.089Z,8.18
2023-04-09T17:33:52.269Z,8.35
2023-04-09T17:36:21.021Z,7.65
2023-04-09T17:38:56.553Z,8.05
2023-04-09T17:41:24.150Z,7.78
2023-04-09T17:43:52.185Z,7.65
2023-04-09T17:46:19.667Z,7.70
2023-04-09T17:48:47.930Z,8.00
2023-04-09T17:51:19.997Z,8.07
2023-04-09T17:53:47.723Z,7.32
2023-04-09T17:56:16.947Z,7.57
2023-04-09T17:58:45.113Z,7.32
2023-04-09T18:01:13.564Z,7.95
2023-04-09T18:03:45.763Z,7.75
2023-04-09T18:06:15.322Z,8.25
2023-04-09T18:08:43.403Z,7.90
2023-04-09T18:11:13.226Z,7.15
2023-04-09T18:13:41.352Z,7.80
2023-04-09T18:16:12.640Z,7.50
2023-04-09T18:18:41.257Z,7.80
2023-04-09T18:21:08.841Z,7.88
2023-04-09T18:23:36.818Z,8.23
2023-04-09T18:26:04.254Z,7.63
2023-04-09T18:28:33.418Z,7.85
2023-04-09T18:31:00.677Z,8.48
2023-04-09T18:33:28.570Z,8.15
2023-04-09T18:35:59.806Z,7.18
2023-04-09T18:38:28.930Z,8.43
2023-04-09T18:40:56.667Z,7.63
2023-04-09T18:43:24.900Z,7.65
2023-04-09T18:45:52.580Z,7.88
2023-04-09T18:48:20.454Z,8.40
2023-04-09T18:50:47.988Z,7.63
2023-04-09T18:53:16.519Z,7.72
2023-04-09T18:55:43.903Z,8.38
2023-04-09T18:58:15.725Z,7.65
2023-04-09T19:00:43.636Z,7.43
2023-04-09T19:03:12.276Z,8.00
2023-04-09T19:05:40.135Z,8.00
2023-04-09T19:08:07.792Z,7.53
2023-04-09T19:10:36.049Z,7.68
2023-04-09T19:13:03.902Z,7.13
2023-04-09T19:15:31.426Z,8.07
2023-04-09T19:17:59.059Z,7.40
2023-04-09T19:20:26.520Z,7.68
2023-04-09T19:22:55.511Z,8.13
2023-04-09T19:25:23.310Z,7.32
2023-04-09T19:27:51.015Z,7.43
2023-04-09T19:30:18.267Z,7.35
2023-04-09T19:32:46.295Z,7.82
2023-04-09T19:35:13.690Z,7.18
2023-04-09T19:37:41.517Z,8.13
2023-04-09T19:40:09.476Z,7.57
2023-04-09T19:42:37.100Z,7.50
2023-04-09T19:45:04.714Z,8.00
2023-04-09T19:47:34.001Z,8.15
2023-04-09T19:50:01.328Z,7.53
2023-04-09T19:52:29.228Z,7.85
2023-04-09T19:54:57.805Z,7.82
2023-04-09T19:57:26.573Z,7.65
2023-04-09T19:59:54.052Z,7.97
2023-04-09T20:02:21.781Z,7.47
2023-04-09T20:04:50.502Z,7.30
2023-04-09T20:07:18.042Z,7.28
2023-04-09T20:09:46.856Z,7.70
2023-04-09T20:12:14.420Z,7.65
2023-04-09T20:14:41.683Z,7.20
2023-04-09T20:17:09.801Z,7.13
2023-04-09T20:19:37.818Z,7.55
2023-04-09T20:22:05.664Z,7.75
2023-04-09T20:24:33.835Z,7.45
2023-04-09T20:27:01.708Z,7.72
2023-04-09T20:29:29.304Z,7.95
2023-04-09T20:31:57.770Z,7.65
2023-04-09T20:34:26.991Z,7.82
2023-04-09T20:36:55.445Z,8.40
2023-04-09T20:39:26.553Z,7.63
2023-04-09T20:41:56.596Z,8.57
2023-04-09T20:44:24.487Z,7.50
2023-04-09T20:46:52.025Z,7.95
2023-04-09T20:49:19.651Z,8.13
2023-04-09T20:51:47.612Z,7.30
2023-04-09T20:54:15.445Z,7.90
2023-04-09T20:56:43.792Z,8.00
2023-04-09T20:59:13.640Z,8.05
2023-04-09T21:01:41.290Z,7.60
2023-04-09T21:04:08.923Z,7.72
2023-04-09T21:06:36.592Z,7.57
2023-04-09T21:09:03.964Z,8.32
2023-04-09T21:11:31.534Z,7.88
2023-04-09T21:13:59.465Z,7.72
2023-04-09T21:16:28.425Z,7.60
2023-04-09T21:18:56.075Z,7.45
2023-04-09T21:21:24.054Z,7.95
2023-04-09T21:23:51.663Z,7.43
2023-04-09T21:26:19.253Z,7.80
2023-04-09T21:28:48.145Z,7.57
2023-04-09T21:31:15.947Z,8.02
2023-04-09T21:33:43.466Z,8.23
2023-04-09T21:36:11.210Z,7.78
2023-04-09T21:38:38.751Z,8.02
2023-04-09T21:41:07.028Z,8.40
2023-04-09T21:43:35.357Z,8.10
2023-04-09T21:46:03.092Z,8.05
2023-04-09T21:48:31.122Z,8.07
2023-04-09T21:50:58.802Z,8.07
2023-04-09T21:53:27.036Z,7.82
2023-04-09T21:55:54.526Z,8.07
2023-04-09T21:58:21.813Z,7.55
2023-04-09T22:00:49.375Z,7.68
2023-04-09T22:03:17.051Z,8.25
2023-04-09T22:05:44.763Z,8.38
2023-04-09T22:08:13.015Z,8.07
2023-04-09T22:10:40.545Z,8.32
2023-04-09T22:13:07.921Z,7.93
2023-04-09T22:15:36.895Z,8.95
2023-04-09T22:18:04.362Z,8.32
2023-04-09T22:20:31.881Z,8.77
2023-04-09T22:22:59.579Z,8.02
2023-04-09T22:25:27.176Z,8.48
2023-04-09T22:27:54.455Z,8.77
2023-04-09T22:30:24.363Z,8.32
2023-04-09T22:32:51.877Z,9.00
2023-04-09T22:35:19.507Z,8.90
2023-04-09T22:37:47.037Z,9.05
2023-04-09T22:40:17.947Z,8.82
2023-04-09T22:42:48.548Z,8.90
2023-04-09T22:45:16.063Z,8.20
2023-04-09T22:47:43.478Z,8.90
2023-04-09T22:50:11.528Z,8.20
2023-04-09T22:52:38.748Z,8.50
2023-04-09T22:55:09.890Z,9.00
2023-04-09T22:57:38.348Z,9.10
2023-04-09T23:00:08.328Z,8.77
2023-04-09T23:02:36.849Z,8.90
2023-04-09T23:05:05.051Z,8.57
2023-04-09T23:07:32.478Z,8.40
2023-04-09T23:10:02.024Z,8.82
2023-04-09T23:12:29.302Z,8.45
2023-04-09T23:14:56.777Z,8.32
2023-04-09T23:17:24.556Z,8.25
2023-04-09T23:19:52.360Z,8.85
2023-04-09T23:22:19.604Z,8.27
2023-04-09T23:24:47.093Z,8.63
2023-04-09T23:27:14.334Z,8.48
2023-04-09T23:29:41.867Z,8.80
2023-04-09T23:32:09.175Z,8.95
2023-04-09T23:34:36.677Z,8.75
2023-04-09T23:37:03.944Z,8.52
2023-04-09T23:39:31.432Z,8.80
2023-04-09T23:41:58.729Z,8.93
2023-04-09T23:44:26.599Z,8.40
2023-04-09T23:46:53.920Z,8.60
2023-04-09T23:49:21.540Z,8.75
2023-04-09T23:51:51.235Z,8.43
2023-04-09T23:54:18.869Z,8.43
2023-04-09T23:56:46.805Z,9.18
2023-04-09T23:59:14.370Z,8.27
